Rechercher aéroport 
image banner adimage banner adimage banner ad
image banner ad

51PA - Lamberson

Situé à New Oxford, United States

ICAO - 51PA, IATA -

Données fournies par Airmate  

Information générale

Coordonnées: N39°53'0" W77°4'59"
Élévation : 540 feet MSL.
Variation magnétique : -08° East
Voir autres Aéroports à Pennsylvania

Données opérationnelles

Special qualification required
Heure actuelle UTC:
Heure actuelle locale:
Météo à : KTHV - York ( 18 km )
METAR: KTHV 131953Z AUTO VRB03KT 10SM OVC026 24/19 A2988 RMK AO2 SLP119 T02440189 $
Voir NOTAMs / SUP AIP / TFR affectant cet aéroport [VIEW]
Fréquences de communication: [VIEW]

Pistes:

Identifiant RWYQFULongueur (ft)Largeur (ft)SurfaceLDA (ft)
062300100GRASS
242300100GRASS

Coordonnées de l'aéroport

Adresse: New Oxford United States

Vue satellite de 51PA